sensor_id;sensor_type;location;lat;lon;timestamp;temperature;humidity
43997;DHT22;34318;45.818;15.964;2022-07-10T00:01:30;23.40;62.80
43997;DHT22;34318;45.818;15.964;2022-07-10T00:03:57;23.30;62.90
43997;DHT22;34318;45.818;15.964;2022-07-10T00:06:24;23.30;63.20
43997;DHT22;34318;45.818;15.964;2022-07-10T00:08:51;23.40;62.90
43997;DHT22;34318;45.818;15.964;2022-07-10T00:11:18;23.30;63.10
43997;DHT22;34318;45.818;15.964;2022-07-10T00:13:45;23.30;63.00
43997;DHT22;34318;45.818;15.964;2022-07-10T00:16:12;23.30;62.90
43997;DHT22;34318;45.818;15.964;2022-07-10T00:18:39;23.30;63.20
43997;DHT22;34318;45.818;15.964;2022-07-10T00:21:07;23.20;63.90
43997;DHT22;34318;45.818;15.964;2022-07-10T00:23:34;23.30;63.60
43997;DHT22;34318;45.818;15.964;2022-07-10T00:26:00;23.40;63.30
43997;DHT22;34318;45.818;15.964;2022-07-10T00:28:27;23.40;63.40
43997;DHT22;34318;45.818;15.964;2022-07-10T00:30:54;23.40;63.20
43997;DHT22;34318;45.818;15.964;2022-07-10T00:33:21;23.40;63.30
43997;DHT22;34318;45.818;15.964;2022-07-10T00:35:48;23.40;63.30
43997;DHT22;34318;45.818;15.964;2022-07-10T00:38:15;23.40;63.20
43997;DHT22;34318;45.818;15.964;2022-07-10T00:40:42;23.40;63.30
43997;DHT22;34318;45.818;15.964;2022-07-10T00:43:09;23.40;63.20
43997;DHT22;34318;45.818;15.964;2022-07-10T00:45:36;23.40;63.00
43997;DHT22;34318;45.818;15.964;2022-07-10T00:48:04;23.40;62.70
43997;DHT22;34318;45.818;15.964;2022-07-10T00:50:32;23.40;62.90
43997;DHT22;34318;45.818;15.964;2022-07-10T00:53:00;23.30;63.60
43997;DHT22;34318;45.818;15.964;2022-07-10T00:55:30;23.40;63.30
43997;DHT22;34318;45.818;15.964;2022-07-10T00:57:59;23.40;63.00
43997;DHT22;34318;45.818;15.964;2022-07-10T01:00:28;23.40;63.20
43997;DHT22;34318;45.818;15.964;2022-07-10T01:02:55;23.30;63.30
43997;DHT22;34318;45.818;15.964;2022-07-10T01:05:22;23.30;63.50
43997;DHT22;34318;45.818;15.964;2022-07-10T01:07:50;23.30;63.60
43997;DHT22;34318;45.818;15.964;2022-07-10T01:10:17;23.40;63.30
43997;DHT22;34318;45.818;15.964;2022-07-10T01:12:45;23.30;63.60
43997;DHT22;34318;45.818;15.964;2022-07-10T01:15:13;23.40;63.40
43997;DHT22;34318;45.818;15.964;2022-07-10T01:17:40;23.30;63.50
43997;DHT22;34318;45.818;15.964;2022-07-10T01:20:09;23.40;63.50
43997;DHT22;34318;45.818;15.964;2022-07-10T01:22:36;23.40;63.30
43997;DHT22;34318;45.818;15.964;2022-07-10T01:25:04;23.30;63.50
43997;DHT22;34318;45.818;15.964;2022-07-10T01:27:32;23.30;64.10
43997;DHT22;34318;45.818;15.964;2022-07-10T01:29:59;23.40;63.20
43997;DHT22;34318;45.818;15.964;2022-07-10T01:32:36;23.40;63.20
43997;DHT22;34318;45.818;15.964;2022-07-10T01:35:03;23.30;63.60
43997;DHT22;34318;45.818;15.964;2022-07-10T01:37:30;23.30;63.60
43997;DHT22;34318;45.818;15.964;2022-07-10T01:39:58;23.30;63.70
43997;DHT22;34318;45.818;15.964;2022-07-10T01:42:26;23.30;63.80
43997;DHT22;34318;45.818;15.964;2022-07-10T01:44:54;23.30;63.90
43997;DHT22;34318;45.818;15.964;2022-07-10T01:47:22;23.30;64.30
43997;DHT22;34318;45.818;15.964;2022-07-10T01:49:54;23.30;64.20
43997;DHT22;34318;45.818;15.964;2022-07-10T01:52:21;23.30;64.10
43997;DHT22;34318;45.818;15.964;2022-07-10T01:54:49;23.30;64.00
43997;DHT22;34318;45.818;15.964;2022-07-10T01:57:17;23.30;64.30
43997;DHT22;34318;45.818;15.964;2022-07-10T01:59:44;23.30;64.10
43997;DHT22;34318;45.818;15.964;2022-07-10T02:02:11;23.30;64.30
43997;DHT22;34318;45.818;15.964;2022-07-10T02:04:38;23.40;64.00
43997;DHT22;34318;45.818;15.964;2022-07-10T02:07:12;23.40;64.00
43997;DHT22;34318;45.818;15.964;2022-07-10T02:09:40;23.30;64.00
43997;DHT22;34318;45.818;15.964;2022-07-10T02:12:09;23.30;64.30
43997;DHT22;34318;45.818;15.964;2022-07-10T02:14:37;23.40;64.20
43997;DHT22;34318;45.818;15.964;2022-07-10T02:17:06;23.30;64.40
43997;DHT22;34318;45.818;15.964;2022-07-10T02:19:33;23.30;64.30
43997;DHT22;34318;45.818;15.964;2022-07-10T02:22:00;23.30;64.60
43997;DHT22;34318;45.818;15.964;2022-07-10T02:24:27;23.30;64.80
43997;DHT22;34318;45.818;15.964;2022-07-10T02:26:54;23.30;64.70
43997;DHT22;34318;45.818;15.964;2022-07-10T02:29:22;23.30;64.90
43997;DHT22;34318;45.818;15.964;2022-07-10T02:31:52;23.40;64.80
43997;DHT22;34318;45.818;15.964;2022-07-10T02:34:19;23.30;65.00
43997;DHT22;34318;45.818;15.964;2022-07-10T02:36:46;23.40;64.70
43997;DHT22;34318;45.818;15.964;2022-07-10T02:39:13;23.40;64.30
43997;DHT22;34318;45.818;15.964;2022-07-10T02:41:40;23.30;64.80
43997;DHT22;34318;45.818;15.964;2022-07-10T02:44:07;23.30;65.00
43997;DHT22;34318;45.818;15.964;2022-07-10T02:46:34;23.30;65.70
43997;DHT22;34318;45.818;15.964;2022-07-10T02:49:02;23.20;65.70
43997;DHT22;34318;45.818;15.964;2022-07-10T02:51:31;23.20;65.90
43997;DHT22;34318;45.818;15.964;2022-07-10T02:53:58;23.30;65.80
43997;DHT22;34318;45.818;15.964;2022-07-10T02:56:26;23.30;65.50
43997;DHT22;34318;45.818;15.964;2022-07-10T02:58:53;23.40;65.50
43997;DHT22;34318;45.818;15.964;2022-07-10T03:01:20;23.30;66.00
43997;DHT22;34318;45.818;15.964;2022-07-10T03:03:47;23.30;65.80
43997;DHT22;34318;45.818;15.964;2022-07-10T03:06:15;23.30;66.20
43997;DHT22;34318;45.818;15.964;2022-07-10T03:08:41;23.30;66.20
43997;DHT22;34318;45.818;15.964;2022-07-10T03:11:09;23.20;66.60
43997;DHT22;34318;45.818;15.964;2022-07-10T03:13:36;23.20;66.60
43997;DHT22;34318;45.818;15.964;2022-07-10T03:16:03;23.00;67.50
43997;DHT22;34318;45.818;15.964;2022-07-10T03:18:30;23.00;67.40
43997;DHT22;34318;45.818;15.964;2022-07-10T03:20:57;23.10;66.90
43997;DHT22;34318;45.818;15.964;2022-07-10T03:23:24;23.20;66.50
43997;DHT22;34318;45.818;15.964;2022-07-10T03:25:52;23.30;65.80
43997;DHT22;34318;45.818;15.964;2022-07-10T03:28:19;23.30;65.70
43997;DHT22;34318;45.818;15.964;2022-07-10T03:30:46;23.20;65.60
43997;DHT22;34318;45.818;15.964;2022-07-10T03:33:13;23.30;65.60
43997;DHT22;34318;45.818;15.964;2022-07-10T03:35:41;23.30;65.00
43997;DHT22;34318;45.818;15.964;2022-07-10T03:38:09;23.30;65.00
43997;DHT22;34318;45.818;15.964;2022-07-10T03:40:37;23.30;65.00
43997;DHT22;34318;45.818;15.964;2022-07-10T03:43:04;23.30;64.80
43997;DHT22;34318;45.818;15.964;2022-07-10T03:45:33;23.30;64.70
43997;DHT22;34318;45.818;15.964;2022-07-10T03:48:00;23.30;65.00
43997;DHT22;34318;45.818;15.964;2022-07-10T03:50:27;23.30;65.30
43997;DHT22;34318;45.818;15.964;2022-07-10T03:52:55;23.30;65.40
43997;DHT22;34318;45.818;15.964;2022-07-10T03:55:22;23.30;65.80
43997;DHT22;34318;45.818;15.964;2022-07-10T03:57:49;23.30;66.00
43997;DHT22;34318;45.818;15.964;2022-07-10T04:00:26;23.20;66.30
43997;DHT22;34318;45.818;15.964;2022-07-10T04:03:04;23.20;66.60
43997;DHT22;34318;45.818;15.964;2022-07-10T04:05:32;23.20;66.70
43997;DHT22;34318;45.818;15.964;2022-07-10T04:08:00;23.30;66.40
43997;DHT22;34318;45.818;15.964;2022-07-10T04:10:29;23.30;66.30
43997;DHT22;34318;45.818;15.964;2022-07-10T04:12:57;23.30;66.30
43997;DHT22;34318;45.818;15.964;2022-07-10T04:15:24;23.30;65.60
43997;DHT22;34318;45.818;15.964;2022-07-10T04:17:51;23.40;65.10
43997;DHT22;34318;45.818;15.964;2022-07-10T04:20:20;23.30;65.60
43997;DHT22;34318;45.818;15.964;2022-07-10T04:22:47;23.10;66.00
43997;DHT22;34318;45.818;15.964;2022-07-10T04:25:14;23.00;66.10
43997;DHT22;34318;45.818;15.964;2022-07-10T04:27:41;23.20;65.60
43997;DHT22;34318;45.818;15.964;2022-07-10T04:30:08;23.30;65.30
43997;DHT22;34318;45.818;15.964;2022-07-10T04:32:35;23.30;65.20
43997;DHT22;34318;45.818;15.964;2022-07-10T04:35:02;23.40;65.10
43997;DHT22;34318;45.818;15.964;2022-07-10T04:37:29;23.40;65.30
43997;DHT22;34318;45.818;15.964;2022-07-10T04:39:56;23.30;65.70
43997;DHT22;34318;45.818;15.964;2022-07-10T04:42:25;23.30;66.10
43997;DHT22;34318;45.818;15.964;2022-07-10T04:44:53;23.20;66.40
43997;DHT22;34318;45.818;15.964;2022-07-10T04:47:20;23.20;66.90
43997;DHT22;34318;45.818;15.964;2022-07-10T04:49:47;23.10;67.40
43997;DHT22;34318;45.818;15.964;2022-07-10T04:52:14;23.20;67.40
43997;DHT22;34318;45.818;15.964;2022-07-10T04:54:42;23.20;66.90
43997;DHT22;34318;45.818;15.964;2022-07-10T04:57:08;23.30;67.10
43997;DHT22;34318;45.818;15.964;2022-07-10T04:59:35;23.40;67.00
43997;DHT22;34318;45.818;15.964;2022-07-10T05:02:03;23.30;67.50
43997;DHT22;34318;45.818;15.964;2022-07-10T05:04:30;23.30;67.70
43997;DHT22;34318;45.818;15.964;2022-07-10T05:06:57;23.30;66.90
43997;DHT22;34318;45.818;15.964;2022-07-10T05:09:24;23.40;66.80
43997;DHT22;34318;45.818;15.964;2022-07-10T05:11:52;23.40;67.10
43997;DHT22;34318;45.818;15.964;2022-07-10T05:14:19;23.40;67.00
43997;DHT22;34318;45.818;15.964;2022-07-10T05:16:47;23.50;66.60
43997;DHT22;34318;45.818;15.964;2022-07-10T05:19:14;23.50;67.50
43997;DHT22;34318;45.818;15.964;2022-07-10T05:21:41;23.60;66.60
43997;DHT22;34318;45.818;15.964;2022-07-10T05:24:07;23.60;66.80
43997;DHT22;34318;45.818;15.964;2022-07-10T05:26:34;23.60;67.00
43997;DHT22;34318;45.818;15.964;2022-07-10T05:29:02;23.60;67.10
43997;DHT22;34318;45.818;15.964;2022-07-10T05:31:29;23.60;67.40
43997;DHT22;34318;45.818;15.964;2022-07-10T05:33:56;23.50;67.80
43997;DHT22;34318;45.818;15.964;2022-07-10T05:36:23;23.50;68.40
43997;DHT22;34318;45.818;15.964;2022-07-10T05:38:51;23.60;68.40
43997;DHT22;34318;45.818;15.964;2022-07-10T05:41:17;23.60;68.60
43997;DHT22;34318;45.818;15.964;2022-07-10T05:43:44;23.50;68.50
43997;DHT22;34318;45.818;15.964;2022-07-10T05:46:11;23.60;68.40
43997;DHT22;34318;45.818;15.964;2022-07-10T05:48:38;23.50;68.40
43997;DHT22;34318;45.818;15.964;2022-07-10T05:51:06;23.40;68.40
43997;DHT22;34318;45.818;15.964;2022-07-10T05:53:53;23.60;67.80
43997;DHT22;34318;45.818;15.964;2022-07-10T05:56:20;23.60;67.30
43997;DHT22;34318;45.818;15.964;2022-07-10T05:58:47;23.70;66.90
43997;DHT22;34318;45.818;15.964;2022-07-10T06:01:14;23.80;66.70
43997;DHT22;34318;45.818;15.964;2022-07-10T06:03:40;23.80;66.90
43997;DHT22;34318;45.818;15.964;2022-07-10T06:06:10;23.80;66.70
43997;DHT22;34318;45.818;15.964;2022-07-10T06:08:42;23.80;66.60
43997;DHT22;34318;45.818;15.964;2022-07-10T06:11:09;23.80;66.20
43997;DHT22;34318;45.818;15.964;2022-07-10T06:13:37;23.90;66.20
43997;DHT22;34318;45.818;15.964;2022-07-10T06:16:05;23.80;66.20
43997;DHT22;34318;45.818;15.964;2022-07-10T06:18:32;23.90;66.00
43997;DHT22;34318;45.818;15.964;2022-07-10T06:20:59;23.90;66.30
43997;DHT22;34318;45.818;15.964;2022-07-10T06:23:29;23.90;66.50
43997;DHT22;34318;45.818;15.964;2022-07-10T06:25:57;23.90;66.30
43997;DHT22;34318;45.818;15.964;2022-07-10T06:28:24;23.90;65.90
43997;DHT22;34318;45.818;15.964;2022-07-10T06:30:52;23.80;66.20
43997;DHT22;34318;45.818;15.964;2022-07-10T06:33:26;23.80;66.10
43997;DHT22;34318;45.818;15.964;2022-07-10T06:35:52;23.80;66.20
43997;DHT22;34318;45.818;15.964;2022-07-10T06:38:19;23.80;66.50
43997;DHT22;34318;45.818;15.964;2022-07-10T06:40:47;23.80;66.10
43997;DHT22;34318;45.818;15.964;2022-07-10T06:43:14;23.80;66.70
43997;DHT22;34318;45.818;15.964;2022-07-10T06:45:42;23.80;66.30
43997;DHT22;34318;45.818;15.964;2022-07-10T06:48:10;23.90;66.10
43997;DHT22;34318;45.818;15.964;2022-07-10T06:50:38;23.90;65.80
43997;DHT22;34318;45.818;15.964;2022-07-10T06:53:05;23.80;66.50
43997;DHT22;34318;45.818;15.964;2022-07-10T06:55:32;23.80;67.40
43997;DHT22;34318;45.818;15.964;2022-07-10T06:58:00;23.70;68.30
43997;DHT22;34318;45.818;15.964;2022-07-10T07:00:28;23.80;67.20
43997;DHT22;34318;45.818;15.964;2022-07-10T07:02:55;23.90;66.40
43997;DHT22;34318;45.818;15.964;2022-07-10T07:05:22;23.90;65.90
43997;DHT22;34318;45.818;15.964;2022-07-10T07:07:49;23.90;65.90
43997;DHT22;34318;45.818;15.964;2022-07-10T07:10:17;23.90;65.70
43997;DHT22;34318;45.818;15.964;2022-07-10T07:12:44;24.00;66.20
43997;DHT22;34318;45.818;15.964;2022-07-10T07:15:12;24.00;66.00
43997;DHT22;34318;45.818;15.964;2022-07-10T07:17:43;23.90;66.20
43997;DHT22;34318;45.818;15.964;2022-07-10T07:20:30;23.90;66.50
43997;DHT22;34318;45.818;15.964;2022-07-10T07:23:17;23.90;66.80
43997;DHT22;34318;45.818;15.964;2022-07-10T07:25:44;23.90;66.50
43997;DHT22;34318;45.818;15.964;2022-07-10T07:28:17;23.90;66.00
43997;DHT22;34318;45.818;15.964;2022-07-10T07:30:48;23.90;66.50
43997;DHT22;34318;45.818;15.964;2022-07-10T07:33:16;23.90;66.90
43997;DHT22;34318;45.818;15.964;2022-07-10T07:35:42;23.90;66.40
43997;DHT22;34318;45.818;15.964;2022-07-10T07:38:09;24.00;65.80
43997;DHT22;34318;45.818;15.964;2022-07-10T07:40:37;24.00;65.50
43997;DHT22;34318;45.818;15.964;2022-07-10T07:43:04;24.00;65.60
43997;DHT22;34318;45.818;15.964;2022-07-10T07:45:32;24.00;65.80
43997;DHT22;34318;45.818;15.964;2022-07-10T07:47:59;24.00;65.90
43997;DHT22;34318;45.818;15.964;2022-07-10T07:50:33;24.00;66.10
43997;DHT22;34318;45.818;15.964;2022-07-10T07:53:03;24.00;66.00
43997;DHT22;34318;45.818;15.964;2022-07-10T07:55:31;24.00;65.50
43997;DHT22;34318;45.818;15.964;2022-07-10T07:57:58;24.00;66.30
43997;DHT22;34318;45.818;15.964;2022-07-10T08:00:27;24.00;66.60
43997;DHT22;34318;45.818;15.964;2022-07-10T08:02:56;24.00;66.90
43997;DHT22;34318;45.818;15.964;2022-07-10T08:05:24;24.10;67.30
43997;DHT22;34318;45.818;15.964;2022-07-10T08:08:02;24.00;67.10
43997;DHT22;34318;45.818;15.964;2022-07-10T08:10:35;24.00;67.60
43997;DHT22;34318;45.818;15.964;2022-07-10T08:13:10;24.00;67.90
43997;DHT22;34318;45.818;15.964;2022-07-10T08:15:38;24.10;68.90
43997;DHT22;34318;45.818;15.964;2022-07-10T08:18:05;24.00;69.20
43997;DHT22;34318;45.818;15.964;2022-07-10T08:20:33;24.00;69.10
43997;DHT22;34318;45.818;15.964;2022-07-10T08:23:00;24.00;69.50
43997;DHT22;34318;45.818;15.964;2022-07-10T08:25:29;24.00;68.40
43997;DHT22;34318;45.818;15.964;2022-07-10T08:28:04;24.10;68.20
43997;DHT22;34318;45.818;15.964;2022-07-10T08:30:32;24.00;68.50
43997;DHT22;34318;45.818;15.964;2022-07-10T08:33:01;24.10;68.00
43997;DHT22;34318;45.818;15.964;2022-07-10T08:35:28;24.10;68.20
43997;DHT22;34318;45.818;15.964;2022-07-10T08:37:56;24.10;68.70
43997;DHT22;34318;45.818;15.964;2022-07-10T08:40:24;24.00;68.70
43997;DHT22;34318;45.818;15.964;2022-07-10T08:42:51;24.10;68.30
43997;DHT22;34318;45.818;15.964;2022-07-10T08:45:20;24.10;67.90
43997;DHT22;34318;45.818;15.964;2022-07-10T08:47:48;24.10;67.50
43997;DHT22;34318;45.818;15.964;2022-07-10T08:50:23;24.20;67.50
43997;DHT22;34318;45.818;15.964;2022-07-10T08:53:08;24.20;67.50
43997;DHT22;34318;45.818;15.964;2022-07-10T08:55:38;24.20;67.40
43997;DHT22;34318;45.818;15.964;2022-07-10T08:58:05;24.20;67.40
43997;DHT22;34318;45.818;15.964;2022-07-10T09:00:35;24.20;67.10
43997;DHT22;34318;45.818;15.964;2022-07-10T09:03:02;24.20;66.90
43997;DHT22;34318;45.818;15.964;2022-07-10T09:05:29;24.20;66.60
43997;DHT22;34318;45.818;15.964;2022-07-10T09:07:56;24.20;66.20
43997;DHT22;34318;45.818;15.964;2022-07-10T09:10:27;24.20;66.60
43997;DHT22;34318;45.818;15.964;2022-07-10T09:13:00;24.20;66.50
43997;DHT22;34318;45.818;15.964;2022-07-10T09:15:30;24.20;66.80
43997;DHT22;34318;45.818;15.964;2022-07-10T09:18:01;24.20;65.90
43997;DHT22;34318;45.818;15.964;2022-07-10T09:23:19;24.20;64.80
43997;DHT22;34318;45.818;15.964;2022-07-10T09:25:49;24.20;64.30
43997;DHT22;34318;45.818;15.964;2022-07-10T09:28:18;24.20;63.90
43997;DHT22;34318;45.818;15.964;2022-07-10T09:30:46;24.20;64.00
43997;DHT22;34318;45.818;15.964;2022-07-10T09:33:19;24.20;63.40
43997;DHT22;34318;45.818;15.964;2022-07-10T09:36:07;24.20;63.40
43997;DHT22;34318;45.818;15.964;2022-07-10T09:41:26;24.20;62.10
43997;DHT22;34318;45.818;15.964;2022-07-10T09:43:54;24.30;61.80
43997;DHT22;34318;45.818;15.964;2022-07-10T09:46:27;24.40;61.60
43997;DHT22;34318;45.818;15.964;2022-07-10T09:49:11;24.40;61.50
43997;DHT22;34318;45.818;15.964;2022-07-10T09:51:43;24.40;60.50
43997;DHT22;34318;45.818;15.964;2022-07-10T09:54:15;24.40;60.10
43997;DHT22;34318;45.818;15.964;2022-07-10T09:56:47;24.40;60.90
43997;DHT22;34318;45.818;15.964;2022-07-10T09:59:15;24.40;60.70
43997;DHT22;34318;45.818;15.964;2022-07-10T10:01:45;24.40;60.70
43997;DHT22;34318;45.818;15.964;2022-07-10T10:04:17;24.40;60.50
43997;DHT22;34318;45.818;15.964;2022-07-10T10:06:57;24.40;59.90
43997;DHT22;34318;45.818;15.964;2022-07-10T10:09:38;24.30;60.00
43997;DHT22;34318;45.818;15.964;2022-07-10T10:12:16;24.40;59.80
43997;DHT22;34318;45.818;15.964;2022-07-10T10:14:44;24.40;59.70
43997;DHT22;34318;45.818;15.964;2022-07-10T10:17:11;24.40;59.50
43997;DHT22;34318;45.818;15.964;2022-07-10T10:19:41;24.40;59.00
43997;DHT22;34318;45.818;15.964;2022-07-10T10:22:27;24.40;59.00
43997;DHT22;34318;45.818;15.964;2022-07-10T10:24:56;24.40;59.10
43997;DHT22;34318;45.818;15.964;2022-07-10T10:27:24;24.40;59.10
43997;DHT22;34318;45.818;15.964;2022-07-10T10:29:51;24.40;58.30
43997;DHT22;34318;45.818;15.964;2022-07-10T10:32:19;24.40;58.60
43997;DHT22;34318;45.818;15.964;2022-07-10T10:34:49;24.50;58.90
43997;DHT22;34318;45.818;15.964;2022-07-10T10:37:39;24.50;58.60
43997;DHT22;34318;45.818;15.964;2022-07-10T10:40:30;24.50;59.30
43997;DHT22;34318;45.818;15.964;2022-07-10T10:42:58;24.50;58.70
43997;DHT22;34318;45.818;15.964;2022-07-10T10:45:41;24.50;58.40
43997;DHT22;34318;45.818;15.964;2022-07-10T10:48:14;24.50;58.20
43997;DHT22;34318;45.818;15.964;2022-07-10T10:51:01;24.50;58.30
43997;DHT22;34318;45.818;15.964;2022-07-10T10:53:29;24.50;57.70
43997;DHT22;34318;45.818;15.964;2022-07-10T10:58:45;24.30;57.20
43997;DHT22;34318;45.818;15.964;2022-07-10T11:06:39;24.50;56.30
43997;DHT22;34318;45.818;15.964;2022-07-10T11:09:23;24.50;56.20
43997;DHT22;34318;45.818;15.964;2022-07-10T11:12:18;24.40;56.20
43997;DHT22;34318;45.818;15.964;2022-07-10T11:14:46;24.40;56.30
43997;DHT22;34318;45.818;15.964;2022-07-10T11:17:14;24.50;56.10
43997;DHT22;34318;45.818;15.964;2022-07-10T11:19:42;24.50;56.40
43997;DHT22;34318;45.818;15.964;2022-07-10T11:22:46;24.50;56.80
43997;DHT22;34318;45.818;15.964;2022-07-10T11:25:48;24.50;57.00
43997;DHT22;34318;45.818;15.964;2022-07-10T11:28:50;24.60;57.50
43997;DHT22;34318;45.818;15.964;2022-07-10T11:31:19;24.50;57.00
43997;DHT22;34318;45.818;15.964;2022-07-10T11:33:48;24.60;57.20
43997;DHT22;34318;45.818;15.964;2022-07-10T11:36:18;24.60;56.80
43997;DHT22;34318;45.818;15.964;2022-07-10T11:38:46;24.60;57.30
43997;DHT22;34318;45.818;15.964;2022-07-10T11:41:18;24.60;57.30
43997;DHT22;34318;45.818;15.964;2022-07-10T11:43:53;24.70;57.20
43997;DHT22;34318;45.818;15.964;2022-07-10T11:46:21;24.70;56.60
43997;DHT22;34318;45.818;15.964;2022-07-10T11:48:49;24.70;56.30
43997;DHT22;34318;45.818;15.964;2022-07-10T11:51:34;24.70;56.20
43997;DHT22;34318;45.818;15.964;2022-07-10T11:54:14;24.80;55.90
43997;DHT22;34318;45.818;15.964;2022-07-10T11:56:50;24.80;55.20
43997;DHT22;34318;45.818;15.964;2022-07-10T11:59:24;24.80;55.50
43997;DHT22;34318;45.818;15.964;2022-07-10T12:01:54;24.90;55.20
43997;DHT22;34318;45.818;15.964;2022-07-10T12:04:23;24.90;55.20
43997;DHT22;34318;45.818;15.964;2022-07-10T12:06:54;25.00;55.40
43997;DHT22;34318;45.818;15.964;2022-07-10T12:09:23;25.00;55.70
43997;DHT22;34318;45.818;15.964;2022-07-10T12:12:05;25.10;55.80
43997;DHT22;34318;45.818;15.964;2022-07-10T12:14:33;25.10;55.80
43997;DHT22;34318;45.818;15.964;2022-07-10T12:17:10;25.10;54.70
43997;DHT22;34318;45.818;15.964;2022-07-10T12:19:38;25.10;54.00
43997;DHT22;34318;45.818;15.964;2022-07-10T12:22:06;25.10;54.40
43997;DHT22;34318;45.818;15.964;2022-07-10T12:24:35;25.10;53.60
43997;DHT22;34318;45.818;15.964;2022-07-10T12:27:03;25.10;53.70
43997;DHT22;34318;45.818;15.964;2022-07-10T12:29:30;25.10;53.40
43997;DHT22;34318;45.818;15.964;2022-07-10T12:32:00;25.10;52.80
43997;DHT22;34318;45.818;15.964;2022-07-10T12:34:40;25.10;53.00
43997;DHT22;34318;45.818;15.964;2022-07-10T12:37:11;25.10;52.80
43997;DHT22;34318;45.818;15.964;2022-07-10T12:42:26;25.10;53.20
43997;DHT22;34318;45.818;15.964;2022-07-10T12:44:54;25.10;52.90
43997;DHT22;34318;45.818;15.964;2022-07-10T12:47:21;25.10;52.60
43997;DHT22;34318;45.818;15.964;2022-07-10T12:50:11;25.10;52.80
43997;DHT22;34318;45.818;15.964;2022-07-10T12:52:38;25.00;52.60
43997;DHT22;34318;45.818;15.964;2022-07-10T12:55:20;25.10;52.80
43997;DHT22;34318;45.818;15.964;2022-07-10T12:57:52;25.00;52.10
43997;DHT22;34318;45.818;15.964;2022-07-10T13:02:49;25.10;50.90
43997;DHT22;34318;45.818;15.964;2022-07-10T13:05:31;25.10;51.40
43997;DHT22;34318;45.818;15.964;2022-07-10T13:08:08;25.20;51.10
43997;DHT22;34318;45.818;15.964;2022-07-10T13:10:56;25.20;51.50
43997;DHT22;34318;45.818;15.964;2022-07-10T13:13:23;25.20;51.10
43997;DHT22;34318;45.818;15.964;2022-07-10T13:15:50;25.20;50.80
43997;DHT22;34318;45.818;15.964;2022-07-10T13:18:23;25.20;50.90
43997;DHT22;34318;45.818;15.964;2022-07-10T13:20:54;25.20;50.40
43997;DHT22;34318;45.818;15.964;2022-07-10T13:23:27;25.20;50.10
43997;DHT22;34318;45.818;15.964;2022-07-10T13:25:54;25.20;50.30
43997;DHT22;34318;45.818;15.964;2022-07-10T13:28:22;25.20;50.30
43997;DHT22;34318;45.818;15.964;2022-07-10T13:30:49;25.30;50.50
43997;DHT22;34318;45.818;15.964;2022-07-10T13:33:15;25.30;50.10
43997;DHT22;34318;45.818;15.964;2022-07-10T13:35:43;25.30;50.20
43997;DHT22;34318;45.818;15.964;2022-07-10T13:38:10;25.20;53.20
43997;DHT22;34318;45.818;15.964;2022-07-10T13:40:44;25.20;52.40
43997;DHT22;34318;45.818;15.964;2022-07-10T13:43:11;25.20;51.90
43997;DHT22;34318;45.818;15.964;2022-07-10T13:45:39;25.20;51.50
43997;DHT22;34318;45.818;15.964;2022-07-10T13:48:13;25.20;51.50
43997;DHT22;34318;45.818;15.964;2022-07-10T13:50:41;25.20;51.50
43997;DHT22;34318;45.818;15.964;2022-07-10T13:53:08;25.20;51.40
43997;DHT22;34318;45.818;15.964;2022-07-10T13:55:36;25.30;51.40
43997;DHT22;34318;45.818;15.964;2022-07-10T13:58:04;25.30;51.50
43997;DHT22;34318;45.818;15.964;2022-07-10T14:00:31;25.30;51.70
43997;DHT22;34318;45.818;15.964;2022-07-10T14:02:58;25.30;51.80
43997;DHT22;34318;45.818;15.964;2022-07-10T14:05:27;25.30;51.90
43997;DHT22;34318;45.818;15.964;2022-07-10T14:07:55;25.20;51.90
43997;DHT22;34318;45.818;15.964;2022-07-10T14:10:22;25.20;52.00
43997;DHT22;34318;45.818;15.964;2022-07-10T14:12:49;25.20;51.90
43997;DHT22;34318;45.818;15.964;2022-07-10T14:15:16;25.20;50.90
43997;DHT22;34318;45.818;15.964;2022-07-10T14:17:43;25.20;50.60
43997;DHT22;34318;45.818;15.964;2022-07-10T14:20:11;25.20;51.20
43997;DHT22;34318;45.818;15.964;2022-07-10T14:22:38;25.20;50.90
43997;DHT22;34318;45.818;15.964;2022-07-10T14:25:06;25.20;50.80
43997;DHT22;34318;45.818;15.964;2022-07-10T14:27:35;25.20;51.20
43997;DHT22;34318;45.818;15.964;2022-07-10T14:30:03;25.20;52.10
43997;DHT22;34318;45.818;15.964;2022-07-10T14:32:31;25.20;51.00
43997;DHT22;34318;45.818;15.964;2022-07-10T14:34:57;25.20;51.00
43997;DHT22;34318;45.818;15.964;2022-07-10T14:37:24;25.30;50.40
43997;DHT22;34318;45.818;15.964;2022-07-10T14:39:52;25.30;50.30
43997;DHT22;34318;45.818;15.964;2022-07-10T14:42:19;25.30;50.20
43997;DHT22;34318;45.818;15.964;2022-07-10T14:44:46;25.30;52.10
43997;DHT22;34318;45.818;15.964;2022-07-10T14:47:14;25.30;53.40
43997;DHT22;34318;45.818;15.964;2022-07-10T14:49:41;25.30;54.80
43997;DHT22;34318;45.818;15.964;2022-07-10T14:52:08;25.30;55.90
43997;DHT22;34318;45.818;15.964;2022-07-10T14:54:35;25.30;55.70
43997;DHT22;34318;45.818;15.964;2022-07-10T14:57:02;25.40;55.10
43997;DHT22;34318;45.818;15.964;2022-07-10T14:59:30;25.40;54.30
43997;DHT22;34318;45.818;15.964;2022-07-10T15:01:57;25.40;53.90
43997;DHT22;34318;45.818;15.964;2022-07-10T15:04:24;25.40;54.00
43997;DHT22;34318;45.818;15.964;2022-07-10T15:06:54;25.30;54.00
43997;DHT22;34318;45.818;15.964;2022-07-10T15:09:20;25.20;54.20
43997;DHT22;34318;45.818;15.964;2022-07-10T15:11:48;25.20;54.40
43997;DHT22;34318;45.818;15.964;2022-07-10T15:14:14;25.20;54.30
43997;DHT22;34318;45.818;15.964;2022-07-10T15:16:41;25.20;54.20
43997;DHT22;34318;45.818;15.964;2022-07-10T15:19:08;25.10;54.20
43997;DHT22;34318;45.818;15.964;2022-07-10T15:21:37;25.10;54.20
43997;DHT22;34318;45.818;15.964;2022-07-10T15:24:04;25.10;54.50
43997;DHT22;34318;45.818;15.964;2022-07-10T15:26:31;25.10;53.80
43997;DHT22;34318;45.818;15.964;2022-07-10T15:28:58;25.10;53.80
43997;DHT22;34318;45.818;15.964;2022-07-10T15:31:25;25.10;54.00
43997;DHT22;34318;45.818;15.964;2022-07-10T15:33:53;25.00;54.10
43997;DHT22;34318;45.818;15.964;2022-07-10T15:36:20;25.00;54.40
43997;DHT22;34318;45.818;15.964;2022-07-10T15:38:48;24.90;54.50
43997;DHT22;34318;45.818;15.964;2022-07-10T15:41:15;24.90;55.10
43997;DHT22;34318;45.818;15.964;2022-07-10T15:43:42;24.80;56.00
43997;DHT22;34318;45.818;15.964;2022-07-10T15:46:10;24.80;56.50
43997;DHT22;34318;45.818;15.964;2022-07-10T15:48:43;24.80;57.10